Time;durP1;ratioP1;P1;durP2;ratioP2;P2;SDS_P1;SDS_P2;PMS_P1;PMS_P2;Temp;Humidity;BMP_temperature;BMP_pressure;BME280_temperature;BME280_humidity;BME280_pressure;Samples;Min_cycle;Max_cycle;Signal;HPM_P1;HPM_P2
2022/07/26 00:02:03;;;;;;;18.20;3.67;;;;;;;;;;4949704;28;20032;-90
2022/07/26 00:04:30;;;;;;;16.20;3.45;;;;;;;;;;4948075;29;20107;-90
2022/07/26 00:06:56;;;;;;;27.70;3.88;;;;;;;;;;4941408;29;20042;-90
2022/07/26 00:09:22;;;;;;;21.70;4.32;;;;;;;;;;4947882;28;20038;-90
2022/07/26 00:11:48;;;;;;;21.90;4.82;;;;;;;;;;4948453;28;20110;-90
2022/07/26 00:14:14;;;;;;;17.42;3.47;;;;;;;;;;4918147;29;20281;-90
2022/07/26 00:16:40;;;;;;;22.83;4.60;;;;;;;;;;4949092;28;20543;-90
2022/07/26 00:19:06;;;;;;;21.27;3.75;;;;;;;;;;4948599;28;20468;-91
2022/07/26 00:21:35;;;;;;;25.52;4.57;;;;;;;;;;4949037;28;20621;-90
2022/07/26 00:24:01;;;;;;;18.20;3.13;;;;;;;;;;4934541;28;20549;-90
2022/07/26 00:26:27;;;;;;;29.00;3.80;;;;;;;;;;4949773;28;20039;-89
2022/07/26 00:28:53;;;;;;;24.05;3.90;;;;;;;;;;4934531;29;20439;-89
2022/07/26 00:31:19;;;;;;;17.65;3.25;;;;;;;;;;4949916;28;20050;-89
2022/07/26 00:33:45;;;;;;;14.65;4.00;;;;;;;;;;4949131;28;20028;-90
2022/07/26 00:36:11;;;;;;;18.05;3.13;;;;;;;;;;4932777;29;20098;-90
2022/07/26 00:38:37;;;;;;;19.88;4.00;;;;;;;;;;4933017;29;20027;-89
2022/07/26 00:41:04;;;;;;;14.55;4.03;;;;;;;;;;4932132;29;20032;-89
2022/07/26 00:43:30;;;;;;;13.25;3.67;;;;;;;;;;4934996;29;20531;-91
2022/07/26 00:45:56;;;;;;;14.43;3.35;;;;;;;;;;4932794;29;20050;-89
2022/07/26 00:48:23;;;;;;;16.38;3.67;;;;;;;;;;4949003;28;20601;-90
2022/07/26 00:50:49;;;;;;;9.23;2.67;;;;;;;;;;4948327;28;20027;-89
2022/07/26 00:53:18;;;;;;;18.73;3.20;;;;;;;;;;4948830;28;20899;-90
2022/07/26 00:55:44;;;;;;;16.95;3.60;;;;;;;;;;4948160;28;20038;-90
2022/07/26 00:58:12;;;;;;;17.63;3.83;;;;;;;;;;4948660;29;22149;-90
2022/07/26 01:00:38;;;;;;;12.55;3.17;;;;;;;;;;4948122;28;20027;-90
2022/07/26 01:03:05;;;;;;;14.80;3.40;;;;;;;;;;4948506;28;20654;-90
2022/07/26 01:05:31;;;;;;;10.02;3.20;;;;;;;;;;4948446;28;20031;-90
2022/07/26 01:07:58;;;;;;;15.40;2.92;;;;;;;;;;4932839;29;20042;-90
2022/07/26 01:10:24;;;;;;;9.60;3.35;;;;;;;;;;4953614;28;20034;-90
2022/07/26 01:12:50;;;;;;;17.90;3.20;;;;;;;;;;4936724;29;20034;-91
2022/07/26 01:15:17;;;;;;;15.75;3.10;;;;;;;;;;4952478;28;20538;-90
2022/07/26 01:17:44;;;;;;;15.98;3.92;;;;;;;;;;4951981;28;20042;-90
2022/07/26 01:20:11;;;;;;;18.23;3.13;;;;;;;;;;4953016;28;20024;-90
2022/07/26 01:22:37;;;;;;;8.95;2.58;;;;;;;;;;4921365;29;20030;-90
2022/07/26 01:25:04;;;;;;;11.68;3.53;;;;;;;;;;4952945;28;20143;-90
2022/07/26 01:27:30;;;;;;;10.75;2.80;;;;;;;;;;4950160;28;20502;-90
2022/07/26 01:29:56;;;;;;;11.70;2.83;;;;;;;;;;4939223;29;20031;-90
2022/07/26 01:32:22;;;;;;;12.23;3.15;;;;;;;;;;4937877;29;20083;-90
2022/07/26 01:34:48;;;;;;;13.45;3.00;;;;;;;;;;4922096;29;20170;-89
2022/07/26 01:37:14;;;;;;;12.35;2.83;;;;;;;;;;4941387;29;20052;-90
2022/07/26 01:39:41;;;;;;;11.07;3.17;;;;;;;;;;4937450;29;20028;-90
2022/07/26 01:42:07;;;;;;;11.85;2.80;;;;;;;;;;4954621;28;20634;-90
2022/07/26 01:44:36;;;;;;;8.35;2.90;;;;;;;;;;4926816;29;20046;-91
2022/07/26 01:47:02;;;;;;;9.50;3.03;;;;;;;;;;4952802;28;20027;-90
2022/07/26 01:49:28;;;;;;;11.00;2.78;;;;;;;;;;4952052;29;20215;-90
2022/07/26 01:51:54;;;;;;;9.95;3.35;;;;;;;;;;4948437;28;20601;-90
2022/07/26 01:54:20;;;;;;;10.77;3.10;;;;;;;;;;4934617;29;20047;-90
2022/07/26 01:56:46;;;;;;;9.85;2.60;;;;;;;;;;4919568;29;20027;-90
2022/07/26 01:59:12;;;;;;;9.65;2.45;;;;;;;;;;4950525;28;20027;-90
2022/07/26 02:01:38;;;;;;;12.88;3.47;;;;;;;;;;4951011;28;20035;-89
2022/07/26 02:04:04;;;;;;;6.05;2.65;;;;;;;;;;4919976;29;20043;-91
2022/07/26 02:06:30;;;;;;;6.72;2.63;;;;;;;;;;4950982;28;20432;-90
2022/07/26 02:08:56;;;;;;;5.53;2.35;;;;;;;;;;4934976;29;20060;-89
2022/07/26 02:11:22;;;;;;;6.15;2.75;;;;;;;;;;4919256;29;20502;-90
2022/07/26 02:13:48;;;;;;;6.82;2.78;;;;;;;;;;4934663;29;20020;-90
2022/07/26 02:16:15;;;;;;;8.98;2.88;;;;;;;;;;4947215;29;20551;-90
2022/07/26 02:18:41;;;;;;;9.02;2.65;;;;;;;;;;4942512;28;20028;-89
2022/07/26 02:21:07;;;;;;;10.45;2.83;;;;;;;;;;4916575;29;20119;-90
2022/07/26 02:23:34;;;;;;;30.13;3.53;;;;;;;;;;4948914;28;20031;-90
2022/07/26 02:26:00;;;;;;;18.88;3.95;;;;;;;;;;4943566;28;20577;-91
2022/07/26 02:28:27;;;;;;;14.43;3.72;;;;;;;;;;4947373;28;20043;-90
2022/07/26 02:30:53;;;;;;;11.73;3.17;;;;;;;;;;4935128;29;20090;-91
2022/07/26 02:33:19;;;;;;;11.23;3.85;;;;;;;;;;4936624;29;20123;-91
2022/07/26 02:35:45;;;;;;;9.98;3.65;;;;;;;;;;4936565;29;20550;-90
2022/07/26 02:38:13;;;;;;;12.40;3.13;;;;;;;;;;4952052;28;20152;-91
2022/07/26 02:40:39;;;;;;;13.07;3.53;;;;;;;;;;4948645;28;20487;-91
2022/07/26 02:43:06;;;;;;;12.80;3.25;;;;;;;;;;4950234;28;20542;-91
2022/07/26 02:45:32;;;;;;;15.57;3.35;;;;;;;;;;4933843;29;20035;-91
2022/07/26 02:47:58;;;;;;;13.18;3.03;;;;;;;;;;4950050;28;20067;-91
2022/07/26 02:50:25;;;;;;;13.07;3.13;;;;;;;;;;4954087;28;20039;-91
2022/07/26 02:52:51;;;;;;;16.33;3.83;;;;;;;;;;4950395;28;20510;-91
2022/07/26 02:55:19;;;;;;;9.57;3.08;;;;;;;;;;4948369;28;20028;-91
2022/07/26 02:57:45;;;;;;;13.60;3.15;;;;;;;;;;4949947;28;20659;-91
2022/07/26 03:00:12;;;;;;;10.77;2.88;;;;;;;;;;4954786;28;20483;-91
2022/07/26 03:02:39;;;;;;;19.63;3.80;;;;;;;;;;4949303;28;20468;-91
2022/07/26 03:05:12;;;;;;;18.00;3.63;;;;;;;;;;4949367;28;20463;-91
2022/07/26 03:07:38;;;;;;;17.98;3.85;;;;;;;;;;4934899;29;20035;-90
2022/07/26 03:10:05;;;;;;;17.52;3.10;;;;;;;;;;4949510;28;20024;-91
2022/07/26 03:12:31;;;;;;;14.60;3.15;;;;;;;;;;4949312;29;20050;-91
2022/07/26 03:14:57;;;;;;;9.68;3.25;;;;;;;;;;4950557;28;20460;-91
2022/07/26 03:17:23;;;;;;;17.80;2.88;;;;;;;;;;4951669;28;20020;-92
2022/07/26 03:19:49;;;;;;;7.70;2.25;;;;;;;;;;4944739;28;20028;-90
2022/07/26 03:22:15;;;;;;;13.65;2.35;;;;;;;;;;4948647;28;20036;-91
2022/07/26 03:24:41;;;;;;;12.77;2.00;;;;;;;;;;4955101;28;20059;-91
2022/07/26 03:27:08;;;;;;;6.32;2.65;;;;;;;;;;4935889;29;20376;-91
2022/07/26 03:29:34;;;;;;;15.60;2.28;;;;;;;;;;4933575;29;20028;-91
2022/07/26 03:32:00;;;;;;;6.45;2.20;;;;;;;;;;4949050;28;20043;-91
2022/07/26 03:34:26;;;;;;;9.98;2.15;;;;;;;;;;4933509;29;20028;-91
2022/07/26 03:36:58;;;;;;;11.80;2.45;;;;;;;;;;4933422;29;20048;-91
2022/07/26 03:39:24;;;;;;;11.10;2.08;;;;;;;;;;4944222;28;20483;-91
2022/07/26 03:41:50;;;;;;;12.75;2.92;;;;;;;;;;4949368;28;20050;-91
2022/07/26 03:44:16;;;;;;;14.80;2.20;;;;;;;;;;4943020;28;20024;-93
2022/07/26 03:46:42;;;;;;;8.18;1.80;;;;;;;;;;4948711;28;20039;-91
2022/07/26 03:49:08;;;;;;;15.18;1.77;;;;;;;;;;4917127;29;20032;-91
2022/07/26 03:51:34;;;;;;;12.82;1.70;;;;;;;;;;4933404;29;20031;-90
2022/07/26 03:54:00;;;;;;;17.27;2.10;;;;;;;;;;4933666;29;20063;-92
2022/07/26 03:56:32;;;;;;;11.48;1.90;;;;;;;;;;4947918;28;20034;-91
2022/07/26 03:59:00;;;;;;;14.55;1.73;;;;;;;;;;4947603;28;20027;-91
2022/07/26 04:01:27;;;;;;;11.50;1.70;;;;;;;;;;4952047;28;20506;-91
2022/07/26 04:03:53;;;;;;;7.20;1.88;;;;;;;;;;4948375;28;20087;-91
2022/07/26 04:06:19;;;;;;;14.63;1.90;;;;;;;;;;4916923;29;20036;-91
2022/07/26 04:08:45;;;;;;;10.05;1.73;;;;;;;;;;4948472;28;20040;-90
2022/07/26 04:11:11;;;;;;;11.13;1.50;;;;;;;;;;4931955;29;20042;-93
2022/07/26 04:13:37;;;;;;;5.90;1.50;;;;;;;;;;4948987;28;20034;-92
2022/07/26 04:16:04;;;;;;;9.70;1.50;;;;;;;;;;4932713;29;20031;-92
2022/07/26 04:18:30;;;;;;;5.80;1.65;;;;;;;;;;4948432;28;20038;-92
2022/07/26 04:20:56;;;;;;;17.08;2.20;;;;;;;;;;4932833;29;20028;-92
2022/07/26 04:23:22;;;;;;;11.68;1.70;;;;;;;;;;4933782;29;20090;-91
2022/07/26 04:25:48;;;;;;;18.35;2.03;;;;;;;;;;4946315;28;20047;-91
2022/07/26 04:28:14;;;;;;;9.23;1.65;;;;;;;;;;4916276;29;20444;-92
2022/07/26 04:30:40;;;;;;;10.88;1.70;;;;;;;;;;4932902;29;20499;-91
2022/07/26 04:33:06;;;;;;;14.32;1.90;;;;;;;;;;4932579;29;20630;-91
2022/07/26 04:35:33;;;;;;;13.52;1.70;;;;;;;;;;4948712;28;20027;-92
2022/07/26 04:38:00;;;;;;;12.95;1.83;;;;;;;;;;4948411;28;20032;-91
2022/07/26 04:40:27;;;;;;;9.35;1.65;;;;;;;;;;4946449;28;20036;-93
2022/07/26 04:42:54;;;;;;;8.00;1.10;;;;;;;;;;4948214;29;20061;-92
2022/07/26 04:45:20;;;;;;;12.45;2.20;;;;;;;;;;4915924;29;20043;-91
2022/07/26 04:47:50;;;;;;;8.02;1.48;;;;;;;;;;4948450;29;20036;-92
2022/07/26 04:50:16;;;;;;;11.80;1.63;;;;;;;;;;4932281;29;20059;-92
2022/07/26 04:52:42;;;;;;;15.57;1.80;;;;;;;;;;4948094;28;20024;-91
2022/07/26 04:55:09;;;;;;;9.70;1.70;;;;;;;;;;4947463;28;20027;-91
2022/07/26 04:57:35;;;;;;;7.03;1.80;;;;;;;;;;4948075;28;20069;-91
2022/07/26 05:00:01;;;;;;;12.85;1.77;;;;;;;;;;4944651;28;20055;-91
2022/07/26 05:02:27;;;;;;;11.80;1.63;;;;;;;;;;4947856;28;20417;-92
2022/07/26 05:04:53;;;;;;;4.50;1.30;;;;;;;;;;4947843;28;20058;-91
2022/07/26 05:07:19;;;;;;;8.57;1.63;;;;;;;;;;4948112;28;20051;-93
2022/07/26 05:09:45;;;;;;;9.80;1.55;;;;;;;;;;4947230;28;20040;-92
2022/07/26 05:12:11;;;;;;;8.30;1.60;;;;;;;;;;4931451;29;20559;-92
2022/07/26 05:14:38;;;;;;;6.35;1.60;;;;;;;;;;4913002;29;20060;-91
2022/07/26 05:17:05;;;;;;;7.70;2.42;;;;;;;;;;4930304;29;20102;-92
2022/07/26 05:19:31;;;;;;;7.60;1.38;;;;;;;;;;4915384;29;20023;-91
2022/07/26 05:21:57;;;;;;;7.25;1.45;;;;;;;;;;4947606;29;20133;-91
2022/07/26 05:24:23;;;;;;;8.60;1.20;;;;;;;;;;4945281;28;20215;-91
2022/07/26 05:26:50;;;;;;;5.57;1.30;;;;;;;;;;4931833;29;20039;-92
2022/07/26 05:29:16;;;;;;;12.88;1.45;;;;;;;;;;4932616;29;20114;-92
2022/07/26 05:31:42;;;;;;;7.15;1.55;;;;;;;;;;4947394;28;20035;-92
2022/07/26 05:34:08;;;;;;;9.30;1.27;;;;;;;;;;4945902;28;20024;-91
2022/07/26 05:36:34;;;;;;;7.68;0.95;;;;;;;;;;4944667;28;20281;-91
2022/07/26 05:39:00;;;;;;;10.88;2.05;;;;;;;;;;4930856;29;20036;-91
2022/07/26 05:41:26;;;;;;;9.63;1.65;;;;;;;;;;4947379;29;20480;-91
2022/07/26 05:43:52;;;;;;;7.47;1.20;;;;;;;;;;4931976;29;20099;-91
2022/07/26 05:46:19;;;;;;;10.02;1.80;;;;;;;;;;4914146;29;20716;-91
2022/07/26 05:48:45;;;;;;;9.18;1.38;;;;;;;;;;4931345;29;20032;-91
2022/07/26 05:51:11;;;;;;;10.38;1.80;;;;;;;;;;4930279;29;20064;-92
2022/07/26 05:53:38;;;;;;;6.10;1.45;;;;;;;;;;4948156;28;20024;-92
2022/07/26 05:56:04;;;;;;;9.52;1.83;;;;;;;;;;4931671;29;20032;-92
2022/07/26 05:58:30;;;;;;;10.73;1.83;;;;;;;;;;4950826;28;20411;-92
2022/07/26 06:00:56;;;;;;;9.65;1.95;;;;;;;;;;4937895;29;20032;-92
2022/07/26 06:03:22;;;;;;;6.18;1.45;;;;;;;;;;4954161;28;20032;-92
2022/07/26 06:05:56;;;;;;;14.00;2.10;;;;;;;;;;4923951;29;20078;-92
2022/07/26 06:08:23;;;;;;;8.05;1.83;;;;;;;;;;4955933;29;20041;-91
2022/07/26 06:10:49;;;;;;;9.77;1.55;;;;;;;;;;4933501;29;20028;-92
2022/07/26 06:13:16;;;;;;;9.73;1.85;;;;;;;;;;4949266;29;20032;-91
2022/07/26 06:15:42;;;;;;;9.45;1.70;;;;;;;;;;4967261;28;20034;-90
2022/07/26 06:18:09;;;;;;;12.45;1.60;;;;;;;;;;4964299;28;20028;-90
2022/07/26 06:20:38;;;;;;;7.72;1.45;;;;;;;;;;4967393;29;20028;-90
2022/07/26 06:23:04;;;;;;;6.78;1.20;;;;;;;;;;4960694;28;20024;-91
2022/07/26 06:25:30;;;;;;;10.95;1.92;;;;;;;;;;4938084;29;20047;-92
2022/07/26 06:27:56;;;;;;;11.68;2.03;;;;;;;;;;4956068;28;20046;-92
2022/07/26 06:30:22;;;;;;;8.85;1.88;;;;;;;;;;4939805;29;20072;-91
2022/07/26 06:32:49;;;;;;;6.30;1.27;;;;;;;;;;4955443;28;20023;-92
2022/07/26 06:35:15;;;;;;;4.70;1.25;;;;;;;;;;4938846;28;20020;-91
2022/07/26 06:37:42;;;;;;;9.65;1.55;;;;;;;;;;4954204;28;20023;-91
2022/07/26 06:40:09;;;;;;;17.50;1.88;;;;;;;;;;4920917;29;20020;-91
2022/07/26 06:42:35;;;;;;;7.97;1.10;;;;;;;;;;4952223;28;20035;-91
2022/07/26 06:45:02;;;;;;;13.18;2.03;;;;;;;;;;4945436;29;20115;-92
2022/07/26 06:47:28;;;;;;;3.97;1.10;;;;;;;;;;4952188;28;20032;-91
2022/07/26 06:49:54;;;;;;;5.70;1.35;;;;;;;;;;4934989;29;20083;-91
2022/07/26 06:52:20;;;;;;;3.45;1.23;;;;;;;;;;4934705;29;20031;-92
2022/07/26 06:54:46;;;;;;;10.48;1.50;;;;;;;;;;4949765;29;20036;-90
2022/07/26 06:57:12;;;;;;;8.88;1.00;;;;;;;;;;4951349;28;20019;-92
2022/07/26 06:59:38;;;;;;;3.30;0.90;;;;;;;;;;4936280;29;20075;-91
2022/07/26 07:02:04;;;;;;;10.00;2.08;;;;;;;;;;4950426;28;20036;-92
2022/07/26 07:04:31;;;;;;;8.68;1.27;;;;;;;;;;4950413;28;20036;-92
2022/07/26 07:07:01;;;;;;;7.47;1.38;;;;;;;;;;4934232;29;20063;-91
2022/07/26 07:09:31;;;;;;;6.47;0.85;;;;;;;;;;4916961;29;20040;-92
2022/07/26 07:11:57;;;;;;;7.93;1.10;;;;;;;;;;4935760;29;20387;-90
2022/07/26 07:14:24;;;;;;;9.13;1.13;;;;;;;;;;4920773;29;20051;-91
2022/07/26 07:16:50;;;;;;;2.05;0.80;;;;;;;;;;4947021;28;20111;-91
2022/07/26 07:19:16;;;;;;;9.98;1.13;;;;;;;;;;4950115;28;20027;-91
2022/07/26 07:21:42;;;;;;;7.72;1.27;;;;;;;;;;4950162;28;20046;-92
2022/07/26 07:24:08;;;;;;;6.55;1.20;;;;;;;;;;4948876;29;20051;-90
2022/07/26 07:26:34;;;;;;;7.85;1.58;;;;;;;;;;4950950;28;20044;-91
2022/07/26 07:29:00;;;;;;;17.98;2.50;;;;;;;;;;4949231;28;20590;-91
2022/07/26 07:31:26;;;;;;;6.18;1.08;;;;;;;;;;4949848;28;20115;-91
2022/07/26 07:33:52;;;;;;;6.25;1.60;;;;;;;;;;4933998;29;20083;-92
2022/07/26 07:36:18;;;;;;;3.10;1.25;;;;;;;;;;4934163;29;20606;-92
2022/07/26 07:38:45;;;;;;;2.78;0.98;;;;;;;;;;4934621;29;20028;-92
2022/07/26 07:41:12;;;;;;;10.05;1.38;;;;;;;;;;4934000;29;20523;-91
2022/07/26 07:43:38;;;;;;;10.20;1.88;;;;;;;;;;4953080;28;20035;-91
2022/07/26 07:46:04;;;;;;;15.23;2.42;;;;;;;;;;4933876;29;20370;-91
2022/07/26 07:48:30;;;;;;;4.93;1.00;;;;;;;;;;4950390;28;20417;-92
2022/07/26 07:50:57;;;;;;;8.77;1.88;;;;;;;;;;4918344;29;20039;-91
2022/07/26 07:53:23;;;;;;;5.30;1.23;;;;;;;;;;4950961;28;20562;-91
2022/07/26 07:55:49;;;;;;;9.07;1.42;;;;;;;;;;4933997;29;20115;-91
2022/07/26 07:58:16;;;;;;;7.60;1.40;;;;;;;;;;4951135;28;20703;-92
2022/07/26 08:00:49;;;;;;;6.50;1.33;;;;;;;;;;4936660;29;20215;-91
2022/07/26 08:03:15;;;;;;;8.43;1.70;;;;;;;;;;4937658;29;20040;-91
2022/07/26 08:05:41;;;;;;;4.80;1.25;;;;;;;;;;4948007;28;20055;-91
2022/07/26 08:08:07;;;;;;;15.18;1.70;;;;;;;;;;4934067;29;20047;-90
2022/07/26 08:10:33;;;;;;;6.20;1.10;;;;;;;;;;4949629;28;20042;-91
2022/07/26 08:12:59;;;;;;;5.10;1.20;;;;;;;;;;4934731;29;20032;-91
2022/07/26 08:15:27;;;;;;;4.22;1.10;;;;;;;;;;4941904;28;20028;-91
2022/07/26 08:17:53;;;;;;;5.07;1.20;;;;;;;;;;4917723;29;20123;-91
2022/07/26 08:20:20;;;;;;;5.47;0.90;;;;;;;;;;4948802;28;20028;-90
2022/07/26 08:22:47;;;;;;;12.75;1.73;;;;;;;;;;4950595;28;20115;-91
2022/07/26 08:25:13;;;;;;;4.57;1.05;;;;;;;;;;4932668;28;20043;-91
2022/07/26 08:27:39;;;;;;;12.02;2.40;;;;;;;;;;4909377;29;20028;-91
2022/07/26 08:30:05;;;;;;;4.50;0.85;;;;;;;;;;4896168;29;20032;-91
2022/07/26 08:32:31;;;;;;;9.35;1.73;;;;;;;;;;4896593;29;20032;-91
2022/07/26 08:34:57;;;;;;;12.10;1.25;;;;;;;;;;4894290;29;20474;-91
2022/07/26 08:37:23;;;;;;;11.10;1.70;;;;;;;;;;4898787;29;20025;-91
2022/07/26 08:39:49;;;;;;;6.40;1.40;;;;;;;;;;4901483;29;20035;-90
2022/07/26 08:42:17;;;;;;;4.65;1.20;;;;;;;;;;4896335;29;20029;-91
2022/07/26 08:44:43;;;;;;;11.65;1.65;;;;;;;;;;4898202;29;20032;-91
2022/07/26 08:47:13;;;;;;;15.32;2.47;;;;;;;;;;4888991;29;20025;-91
2022/07/26 08:49:40;;;;;;;9.98;2.20;;;;;;;;;;4900281;29;20112;-91
2022/07/26 08:52:13;;;;;;;8.35;2.00;;;;;;;;;;4895135;29;20104;-91
2022/07/26 08:54:45;;;;;;;6.93;1.17;;;;;;;;;;4891160;29;20029;-91
2022/07/26 08:57:12;;;;;;;10.98;2.05;;;;;;;;;;4904225;29;20021;-91
2022/07/26 08:59:38;;;;;;;9.13;1.90;;;;;;;;;;4898324;29;20115;-91
2022/07/26 09:02:09;;;;;;;17.10;2.55;;;;;;;;;;4894798;29;20120;-91
2022/07/26 09:04:43;;;;;;;10.30;1.67;;;;;;;;;;4906761;29;20028;-91
2022/07/26 09:07:18;;;;;;;12.57;2.15;;;;;;;;;;4909947;29;20051;-91
2022/07/26 09:10:01;;;;;;;13.07;1.88;;;;;;;;;;4894634;29;20573;-91
2022/07/26 09:12:28;;;;;;;6.15;1.70;;;;;;;;;;4907947;29;20033;-91
2022/07/26 09:14:55;;;;;;;7.88;1.98;;;;;;;;;;4896473;29;20082;-91
2022/07/26 09:17:22;;;;;;;6.47;1.67;;;;;;;;;;4895094;29;20786;-91
2022/07/26 09:20:08;;;;;;;12.35;2.00;;;;;;;;;;4895150;29;20607;-91
2022/07/26 09:22:34;;;;;;;;;;;;;;;;;;4895511;29;20404;-91
2022/07/26 09:25:01;;;;;;;12.75;1.90;;;;;;;;;;4892921;29;19994;-91
2022/07/26 09:27:34;;;;;;;6.28;1.75;;;;;;;;;;4948535;28;20069;-90
2022/07/26 09:30:05;;;;;;;12.55;1.90;;;;;;;;;;4930274;29;20484;-91
2022/07/26 09:32:31;;;;;;;14.23;2.53;;;;;;;;;;4956799;28;20549;-92
2022/07/26 09:35:09;;;;;;;6.32;1.95;;;;;;;;;;4951420;28;20677;-91
2022/07/26 09:37:36;;;;;;;17.50;2.42;;;;;;;;;;4932082;29;20658;-91
2022/07/26 09:40:03;;;;;;;11.55;3.33;;;;;;;;;;4935400;29;20051;-92
2022/07/26 09:42:29;;;;;;;15.02;3.20;;;;;;;;;;4953276;28;20027;-92
2022/07/26 09:44:56;;;;;;;16.42;2.60;;;;;;;;;;4946960;28;20032;-91
2022/07/26 09:47:22;;;;;;;16.13;2.97;;;;;;;;;;4939410;29;20023;-91
2022/07/26 09:49:49;;;;;;;14.30;2.40;;;;;;;;;;4951812;28;20066;-91
2022/07/26 09:52:16;;;;;;;11.23;4.18;;;;;;;;;;4936517;29;20043;-91
2022/07/26 09:54:45;;;;;;;15.15;2.58;;;;;;;;;;4951555;28;20496;-92
2022/07/26 09:57:11;;;;;;;8.93;2.45;;;;;;;;;;4935160;29;20269;-91
2022/07/26 09:59:37;;;;;;;13.82;2.67;;;;;;;;;;4954588;28;20043;-91
2022/07/26 10:02:04;;;;;;;11.95;2.53;;;;;;;;;;4936396;28;20496;-92
2022/07/26 10:04:30;;;;;;;10.52;1.88;;;;;;;;;;4935912;29;20634;-91
2022/07/26 10:06:57;;;;;;;7.15;1.92;;;;;;;;;;4951385;28;20062;-91
2022/07/26 10:09:23;;;;;;;13.88;2.50;;;;;;;;;;4934922;29;20043;-92
2022/07/26 10:12:01;;;;;;;12.57;1.77;;;;;;;;;;4936224;29;20034;-91
2022/07/26 10:14:33;;;;;;;10.63;2.35;;;;;;;;;;4935211;29;20031;-92
2022/07/26 10:17:00;;;;;;;12.95;3.10;;;;;;;;;;4951292;28;20107;-91
2022/07/26 10:30:31;;;;;;;9.27;1.77;;;;;;;;;;5894143;22;10022512;-90
2022/07/26 10:32:58;;;;;;;9.20;2.65;;;;;;;;;;6222400;23;20004;-90
2022/07/26 10:35:35;;;;;;;10.52;1.65;;;;;;;;;;6222788;23;20424;-90
2022/07/26 10:38:02;;;;;;;12.35;1.85;;;;;;;;;;6222830;23;20027;-90
2022/07/26 10:40:31;;;;;;;9.88;2.15;;;;;;;;;;6221606;23;20000;-90
2022/07/26 10:43:07;;;;;;;8.57;1.60;;;;;;;;;;6223602;23;20028;-90
2022/07/26 10:45:33;;;;;;;8.27;2.00;;;;;;;;;;6224661;23;20011;-89
2022/07/26 10:48:19;;;;;;;6.15;1.90;;;;;;;;;;6224202;23;20432;-91
2022/07/26 10:50:49;;;;;;;11.38;2.00;;;;;;;;;;6228163;23;20014;-90
2022/07/26 10:53:18;;;;;;;6.28;1.83;;;;;;;;;;6231001;23;20305;-89
2022/07/26 10:55:46;;;;;;;6.82;1.95;;;;;;;;;;6230205;23;20011;-90
2022/07/26 10:58:12;;;;;;;13.88;1.83;;;;;;;;;;6229149;23;20588;-90
2022/07/26 11:00:38;;;;;;;6.53;1.65;;;;;;;;;;6228453;23;20432;-90
2022/07/26 11:03:04;;;;;;;4.82;2.08;;;;;;;;;;6226907;23;20011;-89
2022/07/26 11:05:32;;;;;;;7.53;2.13;;;;;;;;;;6234982;23;20019;-93
2022/07/26 11:08:09;;;;;;;8.45;1.55;;;;;;;;;;6250324;23;20015;-93
2022/07/26 11:10:40;;;;;;;10.63;2.17;;;;;;;;;;6250027;23;20011;-93
2022/07/26 11:13:19;;;;;;;5.72;1.52;;;;;;;;;;6242730;23;20030;-96
2022/07/26 11:15:47;;;;;;;5.32;1.50;;;;;;;;;;6232999;23;20079;-96
2022/07/26 11:18:18;;;;;;;9.98;1.88;;;;;;;;;;6230109;23;20012;-96
2022/07/26 11:20:46;;;;;;;3.67;1.13;;;;;;;;;;6225635;23;20083;-96
2022/07/26 11:23:25;;;;;;;11.20;1.63;;;;;;;;;;6225779;23;20057;-96
2022/07/26 11:26:05;;;;;;;4.30;1.55;;;;;;;;;;6225081;23;20015;-96
2022/07/26 11:28:52;;;;;;;3.70;1.35;;;;;;;;;;6225423;23;20428;-95
2022/07/26 11:31:19;;;;;;;5.13;1.25;;;;;;;;;;6212932;22;20142;-93
2022/07/26 11:33:47;;;;;;;3.95;1.45;;;;;;;;;;6212970;23;20028;-96
2022/07/26 11:36:14;;;;;;;1.83;1.05;;;;;;;;;;6212505;23;20051;-96
2022/07/26 11:38:44;;;;;;;11.70;1.45;;;;;;;;;;6212830;23;20044;-95
2022/07/26 11:41:10;;;;;;;3.78;1.25;;;;;;;;;;6211592;23;20005;-96
2022/07/26 11:43:39;;;;;;;4.60;1.40;;;;;;;;;;6213651;23;20012;-94
2022/07/26 11:46:05;;;;;;;5.35;1.10;;;;;;;;;;6214239;23;20012;-96
2022/07/26 11:48:32;;;;;;;6.10;1.48;;;;;;;;;;6214344;23;20154;-96
2022/07/26 11:51:15;;;;;;;2.92;1.08;;;;;;;;;;6213747;23;20445;-95
2022/07/26 11:53:42;;;;;;;1.50;0.82;;;;;;;;;;6212482;23;20020;-96
2022/07/26 11:56:14;;;;;;;5.82;1.40;;;;;;;;;;6211209;23;20532;-96
2022/07/26 11:58:41;;;;;;;5.15;1.48;;;;;;;;;;6212268;23;20019;-96
2022/07/26 12:01:07;;;;;;;2.83;1.00;;;;;;;;;;6212932;23;20020;-96
2022/07/26 12:03:34;;;;;;;6.35;1.40;;;;;;;;;;6212524;23;20005;-97
2022/07/26 12:06:07;;;;;;;8.40;1.40;;;;;;;;;;6212278;23;20476;-95
2022/07/26 12:08:47;;;;;;;5.32;1.30;;;;;;;;;;6212247;23;20008;-96
2022/07/26 12:11:13;;;;;;;4.50;1.35;;;;;;;;;;6210675;23;20009;-96
2022/07/26 12:14:00;;;;;;;6.95;1.58;;;;;;;;;;6211119;23;20012;-91
2022/07/26 12:16:45;;;;;;;6.60;1.17;;;;;;;;;;6209770;23;20063;-89
2022/07/26 12:19:11;;;;;;;7.38;1.55;;;;;;;;;;6210805;23;20024;-90
2022/07/26 12:21:42;;;;;;;8.18;1.75;;;;;;;;;;6209523;23;20414;-89
2022/07/26 12:24:08;;;;;;;12.68;2.10;;;;;;;;;;6209380;23;20005;-89
2022/07/26 12:26:34;;;;;;;7.03;1.73;;;;;;;;;;6210264;23;20001;-89
2022/07/26 12:31:46;;;;;;;5.50;1.30;;;;;;;;;;6233826;22;20027;-90
2022/07/26 12:34:19;;;;;;;7.13;1.42;;;;;;;;;;6213861;23;20058;-89
2022/07/26 12:36:45;;;;;;;6.25;1.67;;;;;;;;;;6213968;23;20491;-89
2022/07/26 12:39:19;;;;;;;6.55;1.25;;;;;;;;;;6212915;23;20008;-89
2022/07/26 12:41:49;;;;;;;9.00;1.83;;;;;;;;;;6212830;23;20482;-89
2022/07/26 12:44:16;;;;;;;12.50;2.53;;;;;;;;;;6214148;23;20000;-89
2022/07/26 12:46:43;;;;;;;7.80;1.70;;;;;;;;;;6213901;23;20012;-89
2022/07/26 12:49:10;;;;;;;3.85;1.45;;;;;;;;;;6214272;23;20004;-89
2022/07/26 12:51:36;;;;;;;9.30;1.35;;;;;;;;;;6213851;23;20008;-89
2022/07/26 12:54:05;;;;;;;4.30;1.35;;;;;;;;;;6213723;23;20008;-89
2022/07/26 12:56:31;;;;;;;11.02;1.75;;;;;;;;;;6213750;23;20008;-89
2022/07/26 12:59:00;;;;;;;8.07;1.85;;;;;;;;;;6213754;23;20035;-89
2022/07/26 13:01:27;;;;;;;9.18;1.42;;;;;;;;;;6213607;23;20005;-89
2022/07/26 13:03:54;;;;;;;5.95;1.33;;;;;;;;;;6214234;23;20004;-89
2022/07/26 13:06:20;;;;;;;6.60;1.50;;;;;;;;;;6213698;23;20016;-89
2022/07/26 13:08:46;;;;;;;3.17;1.30;;;;;;;;;;6213646;23;20483;-88
2022/07/26 13:11:12;;;;;;;10.93;1.30;;;;;;;;;;6213447;23;20046;-89
2022/07/26 13:13:38;;;;;;;7.75;1.77;;;;;;;;;;6213982;23;20039;-89
2022/07/26 13:16:04;;;;;;;8.52;1.60;;;;;;;;;;6213562;23;20012;-90
2022/07/26 13:18:30;;;;;;;6.95;2.60;;;;;;;;;;6213267;23;20004;-89
2022/07/26 13:21:03;;;;;;;7.72;2.00;;;;;;;;;;6213326;23;20015;-89
2022/07/26 13:23:32;;;;;;;7.55;1.20;;;;;;;;;;6213293;23;20004;-89
2022/07/26 13:25:58;;;;;;;6.43;1.83;;;;;;;;;;6212605;23;20436;-89
2022/07/26 13:28:24;;;;;;;3.53;1.17;;;;;;;;;;6213360;23;20058;-90
2022/07/26 13:30:50;;;;;;;5.43;1.45;;;;;;;;;;6208780;22;20041;-89
2022/07/26 13:33:16;;;;;;;5.55;1.70;;;;;;;;;;6208194;23;20015;-89
2022/07/26 13:35:42;;;;;;;5.95;1.42;;;;;;;;;;6208440;23;20005;-89
2022/07/26 13:38:08;;;;;;;7.50;1.83;;;;;;;;;;6208131;23;20035;-89
2022/07/26 13:40:34;;;;;;;6.05;1.15;;;;;;;;;;6206707;23;20318;-90
2022/07/26 13:43:00;;;;;;;5.97;1.50;;;;;;;;;;6208304;23;20009;-89
2022/07/26 13:45:26;;;;;;;6.10;1.15;;;;;;;;;;6208404;23;20012;-88
2022/07/26 13:47:52;;;;;;;5.53;1.45;;;;;;;;;;6208886;23;20035;-90
2022/07/26 13:50:19;;;;;;;10.68;1.42;;;;;;;;;;6208365;23;20008;-89
2022/07/26 13:52:45;;;;;;;11.40;1.70;;;;;;;;;;6208064;23;20011;-89
2022/07/26 13:55:11;;;;;;;5.63;1.95;;;;;;;;;;6206967;23;20441;-89
2022/07/26 13:57:37;;;;;;;4.10;1.33;;;;;;;;;;6208629;23;20058;-89
2022/07/26 14:00:03;;;;;;;6.22;1.42;;;;;;;;;;6208293;23;20000;-89
2022/07/26 14:02:29;;;;;;;8.57;1.40;;;;;;;;;;6208547;23;20011;-88
2022/07/26 14:04:55;;;;;;;9.70;1.65;;;;;;;;;;6209978;23;20000;-89
2022/07/26 14:07:21;;;;;;;6.93;1.75;;;;;;;;;;6208753;23;20001;-89
2022/07/26 14:09:47;;;;;;;4.35;1.23;;;;;;;;;;6209619;23;20008;-89
2022/07/26 14:12:14;;;;;;;4.53;1.20;;;;;;;;;;6208211;23;20517;-89
2022/07/26 14:14:40;;;;;;;1.48;0.88;;;;;;;;;;6208365;23;20062;-89
2022/07/26 14:17:06;;;;;;;6.88;1.30;;;;;;;;;;6208220;23;20017;-89
2022/07/26 14:19:32;;;;;;;4.78;1.15;;;;;;;;;;6208259;23;20109;-89
2022/07/26 14:21:58;;;;;;;4.28;1.10;;;;;;;;;;6208349;23;20000;-90
2022/07/26 14:24:24;;;;;;;4.00;1.10;;;;;;;;;;6207552;23;20008;-90
2022/07/26 14:26:50;;;;;;;4.60;1.67;;;;;;;;;;6208941;23;20005;-89
2022/07/26 14:29:16;;;;;;;7.13;1.15;;;;;;;;;;6208333;23;20392;-90
2022/07/26 14:31:43;;;;;;;8.60;1.50;;;;;;;;;;6209861;22;20017;-89
2022/07/26 14:34:09;;;;;;;5.30;1.67;;;;;;;;;;6210318;23;20079;-89
2022/07/26 14:36:35;;;;;;;6.70;0.93;;;;;;;;;;6208779;23;20036;-90
2022/07/26 14:39:01;;;;;;;6.10;1.30;;;;;;;;;;6207194;23;20016;-88
2022/07/26 14:41:27;;;;;;;4.93;1.27;;;;;;;;;;6210259;23;20332;-89
2022/07/26 14:43:53;;;;;;;2.08;0.80;;;;;;;;;;6208854;23;20591;-89
2022/07/26 14:46:19;;;;;;;2.83;1.17;;;;;;;;;;6209047;23;20043;-89
2022/07/26 14:48:46;;;;;;;2.40;0.90;;;;;;;;;;6209415;23;20009;-89
2022/07/26 14:51:12;;;;;;;6.47;1.13;;;;;;;;;;6209578;23;20084;-89
2022/07/26 14:53:38;;;;;;;4.05;0.98;;;;;;;;;;6209163;23;20009;-89